sensor_id;sensor_type;location;lat;lon;timestamp;P1;durP1;ratioP1;P2;durP2;ratioP2
1925;SDS011;964;42.606;23.588;2023-03-24T00:01:48;23.40;;;13.70;;
1925;SDS011;964;42.606;23.588;2023-03-24T00:04:15;25.33;;;12.23;;
1925;SDS011;964;42.606;23.588;2023-03-24T00:06:42;22.77;;;13.63;;
1925;SDS011;964;42.606;23.588;2023-03-24T00:09:10;22.23;;;13.47;;
1925;SDS011;964;42.606;23.588;2023-03-24T00:11:37;18.03;;;11.20;;
1925;SDS011;964;42.606;23.588;2023-03-24T00:14:04;19.07;;;12.03;;
1925;SDS011;964;42.606;23.588;2023-03-24T00:16:31;22.30;;;12.80;;
1925;SDS011;964;42.606;23.588;2023-03-24T00:18:59;18.03;;;12.10;;
1925;SDS011;964;42.606;23.588;2023-03-24T00:21:26;16.07;;;10.40;;
1925;SDS011;964;42.606;23.588;2023-03-24T00:23:53;16.83;;;10.20;;
1925;SDS011;964;42.606;23.588;2023-03-24T00:26:23;36.30;;;23.00;;
1925;SDS011;964;42.606;23.588;2023-03-24T00:28:50;35.70;;;20.27;;
1925;SDS011;964;42.606;23.588;2023-03-24T00:31:17;32.03;;;18.47;;
1925;SDS011;964;42.606;23.588;2023-03-24T00:33:44;27.60;;;16.40;;
1925;SDS011;964;42.606;23.588;2023-03-24T00:36:15;43.17;;;23.27;;
1925;SDS011;964;42.606;23.588;2023-03-24T00:38:43;37.43;;;20.77;;
1925;SDS011;964;42.606;23.588;2023-03-24T00:41:12;16.93;;;11.10;;
1925;SDS011;964;42.606;23.588;2023-03-24T00:43:43;19.93;;;11.80;;
1925;SDS011;964;42.606;23.588;2023-03-24T00:46:12;23.83;;;13.63;;
1925;SDS011;964;42.606;23.588;2023-03-24T00:48:52;49.50;;;21.87;;
1925;SDS011;964;42.606;23.588;2023-03-24T00:51:26;38.93;;;18.53;;
1925;SDS011;964;42.606;23.588;2023-03-24T00:53:54;30.20;;;15.57;;
1925;SDS011;964;42.606;23.588;2023-03-24T00:56:22;47.07;;;21.77;;
1925;SDS011;964;42.606;23.588;2023-03-24T00:58:52;41.30;;;18.60;;
1925;SDS011;964;42.606;23.588;2023-03-24T01:01:22;35.43;;;20.17;;
1925;SDS011;964;42.606;23.588;2023-03-24T01:03:49;27.67;;;16.97;;
1925;SDS011;964;42.606;23.588;2023-03-24T01:06:16;23.33;;;12.30;;
1925;SDS011;964;42.606;23.588;2023-03-24T01:08:46;26.87;;;15.20;;
1925;SDS011;964;42.606;23.588;2023-03-24T01:11:14;27.73;;;14.53;;
1925;SDS011;964;42.606;23.588;2023-03-24T01:13:42;23.43;;;14.50;;
1925;SDS011;964;42.606;23.588;2023-03-24T01:16:10;28.27;;;16.33;;
1925;SDS011;964;42.606;23.588;2023-03-24T01:18:37;27.53;;;14.30;;
1925;SDS011;964;42.606;23.588;2023-03-24T01:21:05;32.63;;;15.53;;
1925;SDS011;964;42.606;23.588;2023-03-24T01:23:32;35.70;;;16.90;;
1925;SDS011;964;42.606;23.588;2023-03-24T01:26:02;45.93;;;22.87;;
1925;SDS011;964;42.606;23.588;2023-03-24T01:28:30;29.30;;;16.50;;
1925;SDS011;964;42.606;23.588;2023-03-24T01:30:57;28.00;;;15.63;;
1925;SDS011;964;42.606;23.588;2023-03-24T01:33:25;36.50;;;18.70;;
1925;SDS011;964;42.606;23.588;2023-03-24T01:35:52;49.87;;;22.90;;
1925;SDS011;964;42.606;23.588;2023-03-24T01:38:19;31.07;;;15.53;;
1925;SDS011;964;42.606;23.588;2023-03-24T01:40:46;40.90;;;19.87;;
1925;SDS011;964;42.606;23.588;2023-03-24T01:43:15;33.83;;;17.67;;
1925;SDS011;964;42.606;23.588;2023-03-24T01:45:47;24.93;;;14.70;;
1925;SDS011;964;42.606;23.588;2023-03-24T01:48:24;25.00;;;13.47;;
1925;SDS011;964;42.606;23.588;2023-03-24T01:50:56;26.67;;;14.43;;
1925;SDS011;964;42.606;23.588;2023-03-24T01:53:26;25.50;;;13.40;;
1925;SDS011;964;42.606;23.588;2023-03-24T01:55:55;22.67;;;14.50;;
1925;SDS011;964;42.606;23.588;2023-03-24T01:58:22;26.07;;;15.33;;
1925;SDS011;964;42.606;23.588;2023-03-24T02:00:50;25.93;;;12.93;;
1925;SDS011;964;42.606;23.588;2023-03-24T02:03:19;22.13;;;12.40;;
1925;SDS011;964;42.606;23.588;2023-03-24T02:05:51;24.50;;;12.80;;
1925;SDS011;964;42.606;23.588;2023-03-24T02:08:22;20.07;;;12.27;;
1925;SDS011;964;42.606;23.588;2023-03-24T02:10:53;22.27;;;14.03;;
1925;SDS011;964;42.606;23.588;2023-03-24T02:13:22;18.10;;;11.30;;
1925;SDS011;964;42.606;23.588;2023-03-24T02:15:52;19.20;;;11.30;;
1925;SDS011;964;42.606;23.588;2023-03-24T02:18:30;33.60;;;16.33;;
1925;SDS011;964;42.606;23.588;2023-03-24T02:24:18;22.10;;;13.43;;
1925;SDS011;964;42.606;23.588;2023-03-24T02:27:11;35.43;;;17.50;;
1925;SDS011;964;42.606;23.588;2023-03-24T02:29:59;26.37;;;14.47;;
1925;SDS011;964;42.606;23.588;2023-03-24T02:35:48;21.40;;;12.33;;
1925;SDS011;964;42.606;23.588;2023-03-24T02:38:45;19.97;;;11.93;;
1925;SDS011;964;42.606;23.588;2023-03-24T02:41:49;25.63;;;13.17;;
1925;SDS011;964;42.606;23.588;2023-03-24T02:44:24;19.67;;;12.70;;
1925;SDS011;964;42.606;23.588;2023-03-24T02:46:59;28.50;;;13.50;;
1925;SDS011;964;42.606;23.588;2023-03-24T02:49:30;24.40;;;13.20;;
1925;SDS011;964;42.606;23.588;2023-03-24T02:52:06;19.60;;;11.60;;
1925;SDS011;964;42.606;23.588;2023-03-24T02:54:42;18.50;;;11.63;;
1925;SDS011;964;42.606;23.588;2023-03-24T02:57:18;20.30;;;12.17;;
1925;SDS011;964;42.606;23.588;2023-03-24T02:59:48;19.57;;;11.90;;
1925;SDS011;964;42.606;23.588;2023-03-24T03:02:20;16.37;;;11.60;;
1925;SDS011;964;42.606;23.588;2023-03-24T03:04:49;16.60;;;11.17;;
1925;SDS011;964;42.606;23.588;2023-03-24T03:07:20;18.37;;;11.43;;
1925;SDS011;964;42.606;23.588;2023-03-24T03:09:53;15.03;;;9.80;;
1925;SDS011;964;42.606;23.588;2023-03-24T03:12:24;18.90;;;10.80;;
1925;SDS011;964;42.606;23.588;2023-03-24T03:14:56;17.13;;;11.10;;
1925;SDS011;964;42.606;23.588;2023-03-24T03:17:28;16.23;;;10.97;;
1925;SDS011;964;42.606;23.588;2023-03-24T03:19:58;19.20;;;11.67;;
1925;SDS011;964;42.606;23.588;2023-03-24T03:22:33;26.50;;;12.33;;
1925;SDS011;964;42.606;23.588;2023-03-24T03:25:08;33.47;;;16.10;;
1925;SDS011;964;42.606;23.588;2023-03-24T03:27:37;20.33;;;12.47;;
1925;SDS011;964;42.606;23.588;2023-03-24T03:30:07;17.43;;;11.50;;
1925;SDS011;964;42.606;23.588;2023-03-24T03:32:41;22.70;;;12.50;;
1925;SDS011;964;42.606;23.588;2023-03-24T03:35:11;21.03;;;13.33;;
1925;SDS011;964;42.606;23.588;2023-03-24T03:37:44;18.77;;;11.13;;
1925;SDS011;964;42.606;23.588;2023-03-24T03:40:16;24.60;;;12.70;;
1925;SDS011;964;42.606;23.588;2023-03-24T03:42:48;23.97;;;13.00;;
1925;SDS011;964;42.606;23.588;2023-03-24T03:45:16;22.37;;;13.27;;
1925;SDS011;964;42.606;23.588;2023-03-24T03:47:43;22.93;;;11.80;;
1925;SDS011;964;42.606;23.588;2023-03-24T03:50:11;21.73;;;12.30;;
1925;SDS011;964;42.606;23.588;2023-03-24T03:52:38;21.53;;;11.70;;
1925;SDS011;964;42.606;23.588;2023-03-24T03:55:06;19.03;;;12.93;;
1925;SDS011;964;42.606;23.588;2023-03-24T03:57:33;22.20;;;12.90;;
1925;SDS011;964;42.606;23.588;2023-03-24T04:00:03;25.00;;;14.60;;
1925;SDS011;964;42.606;23.588;2023-03-24T04:02:37;20.77;;;12.80;;
1925;SDS011;964;42.606;23.588;2023-03-24T04:05:25;17.80;;;11.20;;
1925;SDS011;964;42.606;23.588;2023-03-24T04:08:10;18.97;;;11.67;;
1925;SDS011;964;42.606;23.588;2023-03-24T04:10:48;19.30;;;11.97;;
1925;SDS011;964;42.606;23.588;2023-03-24T04:13:32;23.83;;;13.48;;
1925;SDS011;964;42.606;23.588;2023-03-24T04:16:07;20.60;;;12.83;;
1925;SDS011;964;42.606;23.588;2023-03-24T04:18:57;21.30;;;12.77;;
1925;SDS011;964;42.606;23.588;2023-03-24T04:21:43;17.00;;;11.00;;
1925;SDS011;964;42.606;23.588;2023-03-24T04:24:21;18.30;;;11.40;;
1925;SDS011;964;42.606;23.588;2023-03-24T04:27:02;17.00;;;11.10;;
1925;SDS011;964;42.606;23.588;2023-03-24T04:29:34;17.93;;;11.17;;
1925;SDS011;964;42.606;23.588;2023-03-24T04:32:12;21.20;;;12.67;;
1925;SDS011;964;42.606;23.588;2023-03-24T04:34:45;20.80;;;12.57;;
1925;SDS011;964;42.606;23.588;2023-03-24T04:37:18;20.40;;;11.50;;
1925;SDS011;964;42.606;23.588;2023-03-24T04:39:48;28.57;;;14.17;;
1925;SDS011;964;42.606;23.588;2023-03-24T04:42:20;32.63;;;15.50;;
1925;SDS011;964;42.606;23.588;2023-03-24T04:44:50;22.43;;;12.47;;
1925;SDS011;964;42.606;23.588;2023-03-24T04:47:20;21.20;;;12.17;;
1925;SDS011;964;42.606;23.588;2023-03-24T04:49:49;26.93;;;13.00;;
1925;SDS011;964;42.606;23.588;2023-03-24T04:52:19;21.30;;;14.13;;
1925;SDS011;964;42.606;23.588;2023-03-24T04:54:46;20.50;;;14.03;;
1925;SDS011;964;42.606;23.588;2023-03-24T04:57:12;24.20;;;13.00;;
1925;SDS011;964;42.606;23.588;2023-03-24T04:59:39;21.23;;;13.10;;
1925;SDS011;964;42.606;23.588;2023-03-24T05:02:07;23.57;;;12.90;;
1925;SDS011;964;42.606;23.588;2023-03-24T05:04:35;24.50;;;13.27;;
1925;SDS011;964;42.606;23.588;2023-03-24T05:07:01;25.60;;;13.20;;
1925;SDS011;964;42.606;23.588;2023-03-24T05:09:28;22.00;;;13.17;;
1925;SDS011;964;42.606;23.588;2023-03-24T05:11:56;19.00;;;11.33;;
1925;SDS011;964;42.606;23.588;2023-03-24T05:14:23;16.60;;;10.23;;
1925;SDS011;964;42.606;23.588;2023-03-24T05:16:50;16.70;;;10.80;;
1925;SDS011;964;42.606;23.588;2023-03-24T05:19:26;18.90;;;11.30;;
1925;SDS011;964;42.606;23.588;2023-03-24T05:22:05;22.77;;;12.67;;
1925;SDS011;964;42.606;23.588;2023-03-24T05:24:32;31.67;;;14.03;;
1925;SDS011;964;42.606;23.588;2023-03-24T05:26:59;19.23;;;12.97;;
1925;SDS011;964;42.606;23.588;2023-03-24T05:29:25;22.07;;;14.00;;
1925;SDS011;964;42.606;23.588;2023-03-24T05:31:52;27.67;;;15.60;;
1925;SDS011;964;42.606;23.588;2023-03-24T05:34:19;24.87;;;15.03;;
1925;SDS011;964;42.606;23.588;2023-03-24T05:36:46;22.83;;;14.60;;
1925;SDS011;964;42.606;23.588;2023-03-24T05:39:14;25.27;;;14.97;;
1925;SDS011;964;42.606;23.588;2023-03-24T05:41:41;25.83;;;15.20;;
1925;SDS011;964;42.606;23.588;2023-03-24T05:44:08;22.93;;;15.40;;
1925;SDS011;964;42.606;23.588;2023-03-24T05:46:35;25.10;;;15.60;;
1925;SDS011;964;42.606;23.588;2023-03-24T05:49:02;24.30;;;15.43;;
1925;SDS011;964;42.606;23.588;2023-03-24T05:51:28;19.63;;;13.07;;
1925;SDS011;964;42.606;23.588;2023-03-24T05:53:55;21.87;;;14.50;;
1925;SDS011;964;42.606;23.588;2023-03-24T05:56:23;22.07;;;15.00;;
1925;SDS011;964;42.606;23.588;2023-03-24T05:58:50;20.80;;;13.27;;
1925;SDS011;964;42.606;23.588;2023-03-24T06:01:16;21.50;;;13.90;;
1925;SDS011;964;42.606;23.588;2023-03-24T06:03:43;21.13;;;13.33;;
1925;SDS011;964;42.606;23.588;2023-03-24T06:06:10;18.40;;;12.83;;
1925;SDS011;964;42.606;23.588;2023-03-24T06:08:40;23.37;;;14.63;;
1925;SDS011;964;42.606;23.588;2023-03-24T06:11:09;23.27;;;13.63;;
1925;SDS011;964;42.606;23.588;2023-03-24T06:13:38;20.97;;;15.07;;
1925;SDS011;964;42.606;23.588;2023-03-24T06:16:05;23.63;;;14.73;;
1925;SDS011;964;42.606;23.588;2023-03-24T06:18:33;24.23;;;14.43;;
1925;SDS011;964;42.606;23.588;2023-03-24T06:21:00;26.73;;;14.77;;
1925;SDS011;964;42.606;23.588;2023-03-24T06:23:27;22.77;;;15.60;;
1925;SDS011;964;42.606;23.588;2023-03-24T06:25:54;21.00;;;15.23;;
1925;SDS011;964;42.606;23.588;2023-03-24T06:28:22;22.10;;;14.87;;
1925;SDS011;964;42.606;23.588;2023-03-24T06:30:51;22.17;;;14.10;;
1925;SDS011;964;42.606;23.588;2023-03-24T06:33:20;22.80;;;15.17;;
1925;SDS011;964;42.606;23.588;2023-03-24T06:35:49;22.47;;;14.20;;
1925;SDS011;964;42.606;23.588;2023-03-24T06:38:17;19.57;;;13.30;;
1925;SDS011;964;42.606;23.588;2023-03-24T06:40:43;18.53;;;13.30;;
1925;SDS011;964;42.606;23.588;2023-03-24T06:43:10;19.97;;;12.67;;
1925;SDS011;964;42.606;23.588;2023-03-24T06:45:37;22.40;;;13.90;;
1925;SDS011;964;42.606;23.588;2023-03-24T06:48:05;19.73;;;13.73;;
1925;SDS011;964;42.606;23.588;2023-03-24T06:50:32;18.73;;;13.30;;
1925;SDS011;964;42.606;23.588;2023-03-24T06:52:59;16.70;;;12.70;;
1925;SDS011;964;42.606;23.588;2023-03-24T06:55:26;16.13;;;11.73;;
1925;SDS011;964;42.606;23.588;2023-03-24T06:57:53;17.30;;;13.17;;
1925;SDS011;964;42.606;23.588;2023-03-24T07:00:20;18.23;;;13.80;;
1925;SDS011;964;42.606;23.588;2023-03-24T07:02:47;15.30;;;11.80;;
1925;SDS011;964;42.606;23.588;2023-03-24T07:05:15;18.20;;;13.60;;
1925;SDS011;964;42.606;23.588;2023-03-24T07:07:43;14.70;;;12.03;;
1925;SDS011;964;42.606;23.588;2023-03-24T07:10:10;15.33;;;10.90;;
1925;SDS011;964;42.606;23.588;2023-03-24T07:12:37;15.00;;;11.30;;
1925;SDS011;964;42.606;23.588;2023-03-24T07:15:04;16.87;;;12.30;;
1925;SDS011;964;42.606;23.588;2023-03-24T07:17:32;20.47;;;12.80;;
1925;SDS011;964;42.606;23.588;2023-03-24T07:19:59;17.30;;;12.60;;
1925;SDS011;964;42.606;23.588;2023-03-24T07:22:27;17.87;;;13.90;;
1925;SDS011;964;42.606;23.588;2023-03-24T07:24:53;20.70;;;14.30;;
1925;SDS011;964;42.606;23.588;2023-03-24T07:27:22;19.13;;;12.77;;
1925;SDS011;964;42.606;23.588;2023-03-24T07:29:48;18.27;;;12.57;;
1925;SDS011;964;42.606;23.588;2023-03-24T07:32:15;16.67;;;12.87;;
1925;SDS011;964;42.606;23.588;2023-03-24T07:34:42;19.10;;;13.50;;
1925;SDS011;964;42.606;23.588;2023-03-24T07:37:10;16.83;;;13.33;;
1925;SDS011;964;42.606;23.588;2023-03-24T07:39:38;15.00;;;11.93;;
1925;SDS011;964;42.606;23.588;2023-03-24T07:42:05;19.37;;;12.00;;
1925;SDS011;964;42.606;23.588;2023-03-24T07:44:31;20.07;;;12.70;;
1925;SDS011;964;42.606;23.588;2023-03-24T07:46:58;15.67;;;12.30;;
1925;SDS011;964;42.606;23.588;2023-03-24T07:49:25;16.77;;;13.70;;
1925;SDS011;964;42.606;23.588;2023-03-24T07:51:52;19.23;;;13.17;;
1925;SDS011;964;42.606;23.588;2023-03-24T07:54:19;16.57;;;12.30;;
1925;SDS011;964;42.606;23.588;2023-03-24T07:56:47;21.77;;;14.20;;
1925;SDS011;964;42.606;23.588;2023-03-24T07:59:13;21.80;;;14.10;;
1925;SDS011;964;42.606;23.588;2023-03-24T08:01:41;23.33;;;14.57;;
1925;SDS011;964;42.606;23.588;2023-03-24T08:04:08;18.10;;;13.37;;
1925;SDS011;964;42.606;23.588;2023-03-24T08:06:36;17.27;;;13.37;;
1925;SDS011;964;42.606;23.588;2023-03-24T08:09:03;15.30;;;11.90;;
1925;SDS011;964;42.606;23.588;2023-03-24T08:11:29;15.57;;;12.40;;
1925;SDS011;964;42.606;23.588;2023-03-24T08:13:57;17.53;;;12.63;;
1925;SDS011;964;42.606;23.588;2023-03-24T08:16:24;13.90;;;11.93;;
1925;SDS011;964;42.606;23.588;2023-03-24T08:18:51;21.70;;;13.13;;
1925;SDS011;964;42.606;23.588;2023-03-24T08:21:18;14.00;;;11.43;;
1925;SDS011;964;42.606;23.588;2023-03-24T08:23:45;14.83;;;12.13;;
1925;SDS011;964;42.606;23.588;2023-03-24T08:26:11;17.00;;;12.97;;
1925;SDS011;964;42.606;23.588;2023-03-24T08:28:38;13.40;;;11.10;;
1925;SDS011;964;42.606;23.588;2023-03-24T08:31:07;15.30;;;11.77;;
1925;SDS011;964;42.606;23.588;2023-03-24T08:33:33;16.40;;;12.47;;
1925;SDS011;964;42.606;23.588;2023-03-24T08:36:01;16.57;;;11.77;;
1925;SDS011;964;42.606;23.588;2023-03-24T08:38:28;15.10;;;11.33;;
1925;SDS011;964;42.606;23.588;2023-03-24T08:40:55;12.90;;;10.50;;
1925;SDS011;964;42.606;23.588;2023-03-24T08:43:26;12.70;;;10.03;;
1925;SDS011;964;42.606;23.588;2023-03-24T08:45:54;14.23;;;10.83;;
1925;SDS011;964;42.606;23.588;2023-03-24T08:48:22;11.53;;;10.33;;
1925;SDS011;964;42.606;23.588;2023-03-24T08:50:49;13.03;;;10.30;;
1925;SDS011;964;42.606;23.588;2023-03-24T08:53:16;12.60;;;10.27;;
1925;SDS011;964;42.606;23.588;2023-03-24T08:55:43;11.83;;;8.93;;
1925;SDS011;964;42.606;23.588;2023-03-24T08:58:11;12.97;;;10.20;;
1925;SDS011;964;42.606;23.588;2023-03-24T09:00:39;12.30;;;9.50;;
1925;SDS011;964;42.606;23.588;2023-03-24T09:03:08;13.43;;;9.70;;
1925;SDS011;964;42.606;23.588;2023-03-24T09:05:39;10.70;;;8.90;;
1925;SDS011;964;42.606;23.588;2023-03-24T09:08:05;13.30;;;8.17;;
1925;SDS011;964;42.606;23.588;2023-03-24T09:10:33;8.17;;;6.60;;
1925;SDS011;964;42.606;23.588;2023-03-24T09:12:59;7.90;;;6.70;;
1925;SDS011;964;42.606;23.588;2023-03-24T09:15:26;7.90;;;7.07;;
1925;SDS011;964;42.606;23.588;2023-03-24T09:17:53;8.20;;;7.40;;
1925;SDS011;964;42.606;23.588;2023-03-24T09:20:20;9.43;;;8.03;;
1925;SDS011;964;42.606;23.588;2023-03-24T09:22:48;9.17;;;8.17;;
1925;SDS011;964;42.606;23.588;2023-03-24T09:25:15;11.10;;;9.97;;
1925;SDS011;964;42.606;23.588;2023-03-24T09:27:43;10.37;;;8.67;;
1925;SDS011;964;42.606;23.588;2023-03-24T09:37:01;12.13;;;8.73;;
1925;SDS011;964;42.606;23.588;2023-03-24T09:39:29;9.13;;;8.23;;
1925;SDS011;964;42.606;23.588;2023-03-24T09:41:56;10.43;;;8.90;;
1925;SDS011;964;42.606;23.588;2023-03-24T09:44:24;10.97;;;8.40;;
1925;SDS011;964;42.606;23.588;2023-03-24T09:46:55;11.37;;;10.17;;
1925;SDS011;964;42.606;23.588;2023-03-24T09:49:26;11.17;;;9.27;;
1925;SDS011;964;42.606;23.588;2023-03-24T09:51:59;8.73;;;7.90;;
1925;SDS011;964;42.606;23.588;2023-03-24T09:54:34;12.00;;;8.87;;
1925;SDS011;964;42.606;23.588;2023-03-24T09:57:07;9.70;;;8.77;;
1925;SDS011;964;42.606;23.588;2023-03-24T09:59:41;10.50;;;8.50;;
1925;SDS011;964;42.606;23.588;2023-03-24T10:02:09;11.40;;;9.50;;
1925;SDS011;964;42.606;23.588;2023-03-24T10:04:37;49.30;;;19.03;;
1925;SDS011;964;42.606;23.588;2023-03-24T10:07:06;10.37;;;9.03;;
1925;SDS011;964;42.606;23.588;2023-03-24T10:09:41;10.43;;;8.80;;
1925;SDS011;964;42.606;23.588;2023-03-24T10:12:15;9.77;;;8.40;;
1925;SDS011;964;42.606;23.588;2023-03-24T10:14:51;14.30;;;11.43;;
1925;SDS011;964;42.606;23.588;2023-03-24T10:17:24;11.90;;;10.17;;
1925;SDS011;964;42.606;23.588;2023-03-24T10:20:02;11.93;;;8.20;;
1925;SDS011;964;42.606;23.588;2023-03-24T10:22:38;9.30;;;8.40;;
1925;SDS011;964;42.606;23.588;2023-03-24T10:25:17;9.73;;;8.57;;
1925;SDS011;964;42.606;23.588;2023-03-24T10:27:50;8.50;;;7.60;;
1925;SDS011;964;42.606;23.588;2023-03-24T10:30:21;7.70;;;7.00;;
1925;SDS011;964;42.606;23.588;2023-03-24T10:32:50;10.57;;;7.97;;
1925;SDS011;964;42.606;23.588;2023-03-24T10:35:19;8.90;;;8.00;;
1925;SDS011;964;42.606;23.588;2023-03-24T10:37:49;7.97;;;7.10;;
1925;SDS011;964;42.606;23.588;2023-03-24T10:40:20;11.40;;;7.87;;
1925;SDS011;964;42.606;23.588;2023-03-24T10:42:50;9.03;;;7.13;;
1925;SDS011;964;42.606;23.588;2023-03-24T10:45:21;7.73;;;7.03;;
1925;SDS011;964;42.606;23.588;2023-03-24T10:47:52;11.13;;;6.97;;
1925;SDS011;964;42.606;23.588;2023-03-24T10:50:23;8.63;;;6.73;;
1925;SDS011;964;42.606;23.588;2023-03-24T10:52:51;20.23;;;10.00;;
1925;SDS011;964;42.606;23.588;2023-03-24T10:55:21;6.80;;;6.20;;
1925;SDS011;964;42.606;23.588;2023-03-24T10:57:54;6.40;;;5.80;;
1925;SDS011;964;42.606;23.588;2023-03-24T11:00:24;6.30;;;5.80;;
1925;SDS011;964;42.606;23.588;2023-03-24T11:02:54;7.20;;;6.50;;
1925;SDS011;964;42.606;23.588;2023-03-24T11:05:24;5.87;;;5.37;;
1925;SDS011;964;42.606;23.588;2023-03-24T11:07:55;7.37;;;6.63;;
1925;SDS011;964;42.606;23.588;2023-03-24T11:10:37;9.50;;;6.30;;
1925;SDS011;964;42.606;23.588;2023-03-24T11:13:04;12.17;;;6.47;;
1925;SDS011;964;42.606;23.588;2023-03-24T11:15:41;6.03;;;5.50;;
1925;SDS011;964;42.606;23.588;2023-03-24T11:18:18;6.90;;;5.57;;
1925;SDS011;964;42.606;23.588;2023-03-24T11:20:46;5.40;;;4.80;;
1925;SDS011;964;42.606;23.588;2023-03-24T11:23:19;5.27;;;4.50;;
1925;SDS011;964;42.606;23.588;2023-03-24T11:26:01;4.60;;;4.20;;
1925;SDS011;964;42.606;23.588;2023-03-24T11:28:34;6.23;;;4.60;;
1925;SDS011;964;42.606;23.588;2023-03-24T11:31:05;5.50;;;4.40;;
1925;SDS011;964;42.606;23.588;2023-03-24T11:33:34;4.70;;;4.30;;
1925;SDS011;964;42.606;23.588;2023-03-24T11:39:11;4.00;;;3.70;;
1925;SDS011;964;42.606;23.588;2023-03-24T11:41:42;4.33;;;3.80;;
1925;SDS011;964;42.606;23.588;2023-03-24T11:44:16;4.80;;;4.40;;
1925;SDS011;964;42.606;23.588;2023-03-24T11:46:46;4.73;;;4.33;;
1925;SDS011;964;42.606;23.588;2023-03-24T11:49:17;4.40;;;4.00;;
1925;SDS011;964;42.606;23.588;2023-03-24T11:51:46;4.70;;;4.10;;
1925;SDS011;964;42.606;23.588;2023-03-24T11:54:18;4.20;;;3.90;;
1925;SDS011;964;42.606;23.588;2023-03-24T11:56:50;4.33;;;3.93;;
1925;SDS011;964;42.606;23.588;2023-03-24T11:59:20;3.60;;;3.27;;
1925;SDS011;964;42.606;23.588;2023-03-24T12:01:55;3.43;;;3.13;;
1925;SDS011;964;42.606;23.588;2023-03-24T12:04:27;3.00;;;2.80;;
1925;SDS011;964;42.606;23.588;2023-03-24T12:07:13;3.80;;;3.50;;
1925;SDS011;964;42.606;23.588;2023-03-24T12:10:20;3.70;;;3.30;;
1925;SDS011;964;42.606;23.588;2023-03-24T12:12:58;3.63;;;3.23;;
1925;SDS011;964;42.606;23.588;2023-03-24T12:15:34;4.50;;;4.10;;
1925;SDS011;964;42.606;23.588;2023-03-24T12:21:07;4.10;;;3.80;;
1925;SDS011;964;42.606;23.588;2023-03-24T12:23:48;6.57;;;3.70;;
1925;SDS011;964;42.606;23.588;2023-03-24T12:26:22;3.70;;;3.40;;
1925;SDS011;964;42.606;23.588;2023-03-24T12:31:57;4.30;;;4.00;;
1925;SDS011;964;42.606;23.588;2023-03-24T12:34:57;3.80;;;3.50;;
1925;SDS011;964;42.606;23.588;2023-03-24T12:37:39;5.00;;;4.10;;
1925;SDS011;964;42.606;23.588;2023-03-24T12:43:07;4.17;;;3.77;;
1925;SDS011;964;42.606;23.588;2023-03-24T12:45:49;5.23;;;3.77;;
1925;SDS011;964;42.606;23.588;2023-03-24T12:48:33;3.57;;;3.27;;
1925;SDS011;964;42.606;23.588;2023-03-24T12:51:14;4.03;;;3.73;;
1925;SDS011;964;42.606;23.588;2023-03-24T12:53:52;3.93;;;3.63;;
1925;SDS011;964;42.606;23.588;2023-03-24T12:56:29;3.63;;;3.33;;
1925;SDS011;964;42.606;23.588;2023-03-24T12:59:00;4.23;;;3.93;;
1925;SDS011;964;42.606;23.588;2023-03-24T13:01:34;6.57;;;3.60;;
1925;SDS011;964;42.606;23.588;2023-03-24T13:04:06;3.90;;;3.47;;
1925;SDS011;964;42.606;23.588;2023-03-24T13:06:37;3.63;;;3.33;;
1925;SDS011;964;42.606;23.588;2023-03-24T13:09:11;3.57;;;3.30;;
1925;SDS011;964;42.606;23.588;2023-03-24T13:11:46;7.00;;;4.07;;
1925;SDS011;964;42.606;23.588;2023-03-24T13:14:21;3.83;;;3.30;;
1925;SDS011;964;42.606;23.588;2023-03-24T13:16:55;4.00;;;3.60;;
1925;SDS011;964;42.606;23.588;2023-03-24T13:19:30;7.40;;;3.73;;
1925;SDS011;964;42.606;23.588;2023-03-24T13:21:59;4.43;;;4.03;;
1925;SDS011;964;42.606;23.588;2023-03-24T13:24:29;4.23;;;3.83;;
1925;SDS011;964;42.606;23.588;2023-03-24T13:26:59;5.00;;;4.50;;
1925;SDS011;964;42.606;23.588;2023-03-24T13:29:38;4.40;;;4.00;;
1925;SDS011;964;42.606;23.588;2023-03-24T13:32:31;4.23;;;3.90;;
1925;SDS011;964;42.606;23.588;2023-03-24T13:35:03;4.13;;;3.60;;
1925;SDS011;964;42.606;23.588;2023-03-24T13:37:37;5.10;;;4.60;;
1925;SDS011;964;42.606;23.588;2023-03-24T13:40:08;5.10;;;4.00;;
1925;SDS011;964;42.606;23.588;2023-03-24T13:42:44;5.40;;;4.00;;
1925;SDS011;964;42.606;23.588;2023-03-24T13:45:26;4.90;;;4.50;;
1925;SDS011;964;42.606;23.588;2023-03-24T13:48:05;5.83;;;4.87;;
1925;SDS011;964;42.606;23.588;2023-03-24T13:50:46;5.27;;;4.60;;
1925;SDS011;964;42.606;23.588;2023-03-24T13:53:22;4.70;;;4.30;;
1925;SDS011;964;42.606;23.588;2023-03-24T13:55:55;4.63;;;3.75;;
1925;SDS011;964;42.606;23.588;2023-03-24T13:58:23;7.25;;;4.07;;
1925;SDS011;964;42.606;23.588;2023-03-24T14:01:05;4.00;;;3.60;;
1925;SDS011;964;42.606;23.588;2023-03-24T14:03:43;4.43;;;4.03;;
1925;SDS011;964;42.606;23.588;2023-03-24T14:06:14;4.40;;;4.00;;
1925;SDS011;964;42.606;23.588;2023-03-24T14:08:43;5.47;;;4.03;;
1925;SDS011;964;42.606;23.588;2023-03-24T14:14:15;4.83;;;4.20;;
1925;SDS011;964;42.606;23.588;2023-03-24T14:16:48;4.37;;;3.97;;
1925;SDS011;964;42.606;23.588;2023-03-24T14:19:22;4.60;;;4.03;;
1925;SDS011;964;42.606;23.588;2023-03-24T14:21:51;6.30;;;3.87;;
1925;SDS011;964;42.606;23.588;2023-03-24T14:24:24;5.05;;;4.10;;
1925;SDS011;964;42.606;23.588;2023-03-24T14:26:53;4.57;;;4.18;;
1925;SDS011;964;42.606;23.588;2023-03-24T14:29:36;3.80;;;3.45;;
1925;SDS011;964;42.606;23.588;2023-03-24T14:32:11;4.18;;;3.85;;
1925;SDS011;964;42.606;23.588;2023-03-24T14:34:49;5.68;;;4.45;;
1925;SDS011;964;42.606;23.588;2023-03-24T14:37:18;5.53;;;4.00;;
1925;SDS011;964;42.606;23.588;2023-03-24T14:39:46;4.25;;;3.78;;
1925;SDS011;964;42.606;23.588;2023-03-24T14:42:27;5.43;;;4.30;;
1925;SDS011;964;42.606;23.588;2023-03-24T14:45:39;4.75;;;3.13;;
1925;SDS011;964;42.606;23.588;2023-03-24T14:48:33;4.33;;;3.93;;
1925;SDS011;964;42.606;23.588;2023-03-24T14:51:14;4.60;;;4.20;;
1925;SDS011;964;42.606;23.588;2023-03-24T14:53:49;3.90;;;3.60;;
1925;SDS011;964;42.606;23.588;2023-03-24T14:56:17;5.37;;;4.37;;
1925;SDS011;964;42.606;23.588;2023-03-24T14:58:47;9.83;;;3.53;;
1925;SDS011;964;42.606;23.588;2023-03-24T15:01:20;4.77;;;4.27;;
1925;SDS011;964;42.606;23.588;2023-03-24T15:03:52;3.67;;;3.37;;
1925;SDS011;964;42.606;23.588;2023-03-24T15:06:24;6.10;;;5.33;;
1925;SDS011;964;42.606;23.588;2023-03-24T15:08:51;4.50;;;4.07;;
1925;SDS011;964;42.606;23.588;2023-03-24T15:11:20;4.10;;;3.73;;
1925;SDS011;964;42.606;23.588;2023-03-24T15:13:50;4.83;;;4.33;;
1925;SDS011;964;42.606;23.588;2023-03-24T15:16:19;6.90;;;3.97;;
1925;SDS011;964;42.606;23.588;2023-03-24T15:18:49;4.90;;;4.00;;
1925;SDS011;964;42.606;23.588;2023-03-24T15:21:21;5.67;;;4.20;;
1925;SDS011;964;42.606;23.588;2023-03-24T15:23:52;4.87;;;4.13;;
1925;SDS011;964;42.606;23.588;2023-03-24T15:26:20;6.53;;;4.63;;
1925;SDS011;964;42.606;23.588;2023-03-24T15:28:54;6.63;;;5.03;;
1925;SDS011;964;42.606;23.588;2023-03-24T15:31:23;8.33;;;5.00;;
1925;SDS011;964;42.606;23.588;2023-03-24T15:33:54;8.87;;;5.00;;
1925;SDS011;964;42.606;23.588;2023-03-24T15:36:32;5.30;;;4.33;;
1925;SDS011;964;42.606;23.588;2023-03-24T15:39:00;4.70;;;4.20;;
1925;SDS011;964;42.606;23.588;2023-03-24T15:41:41;10.30;;;5.27;;
1925;SDS011;964;42.606;23.588;2023-03-24T15:44:08;5.60;;;4.53;;
1925;SDS011;964;42.606;23.588;2023-03-24T15:46:41;4.53;;;3.83;;
1925;SDS011;964;42.606;23.588;2023-03-24T15:49:15;11.40;;;4.70;;
1925;SDS011;964;42.606;23.588;2023-03-24T15:51:48;10.70;;;5.80;;